Time;durP1;ratioP1;P1;durP2;ratioP2;P2;SDS_P1;SDS_P2;PMS_P1;PMS_P2;Temp;Humidity;BMP_temperature;BMP_pressure;BME280_temperature;BME280_humidity;BME280_pressure;Samples;Min_cycle;Max_cycle;Signal;HPM_P1;HPM_P2
2023/05/18 00:00:18;;;;;;;13.38;3.75;;;;;;;7.34;100.00;102613.34;5264638;28;20063;-68
2023/05/18 00:02:49;;;;;;;10.32;3.35;;;;;;;7.39;100.00;102612.25;5263440;28;20081;-68
2023/05/18 00:05:20;;;;;;;15.70;3.47;;;;;;;7.27;100.00;102612.69;5262780;28;20556;-68
2023/05/18 00:07:52;;;;;;;8.90;2.80;;;;;;;7.25;100.00;102603.94;5265127;28;20050;-68
2023/05/18 00:10:24;;;;;;;13.63;3.47;;;;;;;7.26;100.00;102606.50;5264678;28;20036;-67
2023/05/18 00:12:55;;;;;;;8.40;3.28;;;;;;;7.29;100.00;102609.97;5262611;28;20410;-67
2023/05/18 00:15:26;;;;;;;14.25;3.30;;;;;;;7.19;100.00;102609.41;5263863;28;20071;-69
2023/05/18 00:17:58;;;;;;;10.98;3.38;;;;;;;7.19;100.00;102610.31;5264026;28;20392;-68
2023/05/18 00:20:30;;;;;;;10.93;3.40;;;;;;;7.14;100.00;102614.03;5267846;28;20041;-68
2023/05/18 00:23:01;;;;;;;10.93;3.55;;;;;;;7.12;100.00;102608.78;5269271;28;20029;-68
2023/05/18 00:25:33;;;;;;;8.70;3.10;;;;;;;7.10;100.00;102613.25;5267380;28;20033;-68
2023/05/18 00:28:04;;;;;;;11.93;4.20;;;;;;;7.14;100.00;102611.38;5266924;28;20028;-68
2023/05/18 00:30:36;;;;;;;12.38;3.05;;;;;;;7.07;100.00;102616.00;5268006;28;20025;-68
2023/05/18 00:33:07;;;;;;;9.90;3.53;;;;;;;7.00;100.00;102609.16;5268602;28;20032;-68
2023/05/18 00:35:38;;;;;;;9.35;2.88;;;;;;;6.93;100.00;102608.50;5265602;28;20131;-68
2023/05/18 00:38:11;;;;;;;8.93;3.22;;;;;;;6.95;100.00;102617.28;5268646;28;20082;-68
2023/05/18 00:40:42;;;;;;;9.65;3.40;;;;;;;6.95;100.00;102613.78;5268462;28;20024;-68
2023/05/18 00:43:14;;;;;;;9.45;3.17;;;;;;;6.87;100.00;102625.50;5303665;27;20036;-68
2023/05/18 00:45:45;;;;;;;9.35;3.10;;;;;;;6.83;100.00;102623.88;5271515;28;20040;-68
2023/05/18 00:48:17;;;;;;;10.25;3.45;;;;;;;6.92;100.00;102617.38;5263297;28;20491;-68
2023/05/18 00:50:48;;;;;;;10.25;3.53;;;;;;;6.82;100.00;102623.91;5263081;28;20033;-68
2023/05/18 00:53:20;;;;;;;10.68;3.60;;;;;;;6.82;100.00;102615.94;5278015;28;20029;-68
2023/05/18 00:55:52;;;;;;;11.75;3.40;;;;;;;6.89;100.00;102616.63;5263688;28;20024;-68
2023/05/18 00:58:25;;;;;;;8.90;3.55;;;;;;;6.72;100.00;102622.47;5265499;28;20038;-68
2023/05/18 01:00:57;;;;;;;11.30;3.10;;;;;;;6.72;100.00;102619.81;5275031;28;20080;-68
2023/05/18 01:03:29;;;;;;;9.50;3.47;;;;;;;6.70;100.00;102617.22;5269222;28;20532;-68
2023/05/18 01:06:00;;;;;;;11.52;3.65;;;;;;;6.78;100.00;102620.47;5263778;28;20475;-68
2023/05/18 01:08:33;;;;;;;12.70;3.63;;;;;;;6.78;100.00;102625.78;5285304;28;20025;-67
2023/05/18 01:11:23;;;;;;;10.35;3.45;;;;;;;6.75;100.00;102620.59;5273030;28;20036;-68
2023/05/18 01:14:16;;;;;;;10.40;3.53;;;;;;;6.76;100.00;102632.06;5275262;28;20029;-68
2023/05/18 01:17:33;;;;;;;11.73;3.40;;;;;;;6.72;100.00;102623.34;5274674;28;20044;-68
2023/05/18 01:20:07;;;;;;;14.85;4.10;;;;;;;6.67;100.00;102627.91;5251663;28;20048;-67
2023/05/18 01:23:05;;;;;;;9.90;3.35;;;;;;;6.63;100.00;102619.16;5266141;28;20152;-68
2023/05/18 01:25:42;;;;;;;10.27;3.83;;;;;;;6.55;100.00;102629.16;5269150;28;20040;-68
2023/05/18 01:28:18;;;;;;;13.98;3.30;;;;;;;6.48;100.00;102630.25;5270203;28;20482;-68
2023/05/18 01:30:50;;;;;;;11.10;3.50;;;;;;;6.45;100.00;102628.56;5271526;28;20449;-68
2023/05/18 01:33:23;;;;;;;9.70;4.03;;;;;;;6.46;100.00;102622.38;5270629;28;20032;-68
2023/05/18 01:35:54;;;;;;;12.18;3.58;;;;;;;6.36;100.00;102628.00;5268320;28;20032;-68
2023/05/18 01:38:27;;;;;;;11.85;4.30;;;;;;;6.37;100.00;102627.09;5270680;28;20086;-68
2023/05/18 01:41:17;;;;;;;9.20;3.40;;;;;;;6.32;100.00;102629.88;5270647;28;20047;-68
2023/05/18 01:44:03;;;;;;;10.52;3.72;;;;;;;6.32;100.00;102626.34;5265891;28;20471;-68
2023/05/18 01:47:07;;;;;;;8.48;3.80;;;;;;;6.32;100.00;102626.34;5271149;28;20487;-68
2023/05/18 01:49:38;;;;;;;12.00;4.28;;;;;;;6.31;100.00;102628.13;5265504;28;20049;-68
2023/05/18 01:52:15;;;;;;;12.80;4.43;;;;;;;6.26;100.00;102632.69;5268035;28;20125;-67
2023/05/18 01:54:52;;;;;;;11.60;3.50;;;;;;;6.24;100.00;102632.75;5274795;28;20487;-68
2023/05/18 01:57:28;;;;;;;7.55;3.35;;;;;;;6.24;100.00;102627.44;5272677;28;20036;-68
2023/05/18 02:00:01;;;;;;;11.25;4.10;;;;;;;6.40;100.00;102629.63;5276517;28;20546;-68
2023/05/18 02:02:32;;;;;;;10.25;3.78;;;;;;;6.33;100.00;102630.72;5266717;28;20690;-68
2023/05/18 02:05:06;;;;;;;15.80;4.18;;;;;;;6.24;100.00;102629.22;5269462;28;20051;-68
2023/05/18 02:07:38;;;;;;;9.30;3.70;;;;;;;6.21;100.00;102629.31;5263315;28;20055;-68
2023/05/18 02:10:10;;;;;;;10.00;4.10;;;;;;;6.19;100.00;102621.41;5262589;28;20127;-68
2023/05/18 02:12:42;;;;;;;11.40;4.80;;;;;;;6.20;100.00;102619.63;5272798;28;20135;-68
2023/05/18 02:15:13;;;;;;;11.15;4.00;;;;;;;6.24;100.00;102621.28;5259575;28;20467;-68
2023/05/18 02:17:45;;;;;;;10.32;3.75;;;;;;;6.15;100.00;102629.50;5264563;28;20046;-68
2023/05/18 02:20:19;;;;;;;11.02;4.13;;;;;;;6.24;100.00;102613.31;5262224;28;20033;-68
2023/05/18 02:22:50;;;;;;;11.85;4.05;;;;;;;6.22;100.00;102623.09;5276347;28;20036;-68
2023/05/18 02:25:22;;;;;;;10.07;3.88;;;;;;;6.17;100.00;102622.38;5262039;28;20036;-68
2023/05/18 02:27:53;;;;;;;12.27;4.35;;;;;;;6.25;100.00;102618.59;5260781;28;20035;-68
2023/05/18 02:30:25;;;;;;;8.77;3.75;;;;;;;6.20;100.00;102614.34;5265449;28;20393;-68
2023/05/18 02:32:56;;;;;;;9.82;3.72;;;;;;;6.24;100.00;102610.69;5268237;28;20663;-67
2023/05/18 02:35:28;;;;;;;11.20;3.60;;;;;;;6.13;100.00;102610.13;5265975;28;20046;-68
2023/05/18 02:37:59;;;;;;;8.95;3.50;;;;;;;6.04;100.00;102612.13;5268955;28;20028;-68
2023/05/18 02:40:31;;;;;;;7.90;3.40;;;;;;;6.00;100.00;102607.84;5262459;28;20081;-68
2023/05/18 02:43:02;;;;;;;9.30;3.85;;;;;;;6.05;100.00;102599.75;5269768;28;20437;-68
2023/05/18 02:45:33;;;;;;;11.52;4.22;;;;;;;5.95;100.00;102601.81;5263024;28;20024;-68
2023/05/18 02:48:05;;;;;;;12.32;4.07;;;;;;;5.93;100.00;102600.09;5261966;28;20538;-68
2023/05/18 02:50:36;;;;;;;8.80;4.00;;;;;;;5.99;100.00;102611.38;5262720;28;20479;-68
2023/05/18 02:53:08;;;;;;;13.70;4.20;;;;;;;5.88;100.00;102602.84;5266486;28;20035;-68
2023/05/18 02:55:40;;;;;;;10.60;4.43;;;;;;;5.95;100.00;102599.16;5268938;28;20063;-68
2023/05/18 02:58:14;;;;;;;11.07;4.20;;;;;;;5.92;100.00;102608.94;5263393;28;20037;-68
2023/05/18 03:00:48;;;;;;;9.75;3.90;;;;;;;6.07;100.00;102603.22;5264919;28;20032;-68
2023/05/18 03:03:19;;;;;;;9.75;3.83;;;;;;;5.90;100.00;102603.66;5260716;28;20120;-68
2023/05/18 03:05:54;;;;;;;9.80;4.15;;;;;;;5.88;100.00;102608.16;5261250;28;20038;-68
2023/05/18 03:08:27;;;;;;;11.57;4.10;;;;;;;5.92;100.00;102600.97;5265753;28;20055;-68
2023/05/18 03:10:59;;;;;;;8.48;4.25;;;;;;;5.99;100.00;102608.75;5261326;28;20430;-68
2023/05/18 03:13:30;;;;;;;9.50;3.80;;;;;;;5.97;100.00;102605.28;5264567;28;20050;-68
2023/05/18 03:16:02;;;;;;;13.90;4.10;;;;;;;5.89;100.00;102609.91;5262098;28;20047;-68
2023/05/18 03:18:33;;;;;;;10.18;4.18;;;;;;;5.83;100.00;102607.41;5264614;28;20025;-67
2023/05/18 03:21:04;;;;;;;11.93;4.45;;;;;;;5.77;100.00;102608.47;5273138;28;20034;-68
2023/05/18 03:23:36;;;;;;;10.13;4.10;;;;;;;5.79;100.00;102616.34;5282055;28;20028;-68
2023/05/18 03:26:10;;;;;;;11.45;4.13;;;;;;;5.80;100.00;102612.78;5259520;28;20143;-68
2023/05/18 03:28:41;;;;;;;12.88;4.22;;;;;;;5.75;100.00;102612.91;5267722;28;20024;-68
2023/05/18 03:31:13;;;;;;;11.02;3.90;;;;;;;5.67;100.00;102607.81;5269042;28;20027;-68
2023/05/18 03:33:44;;;;;;;13.23;3.90;;;;;;;5.66;100.00;102606.09;5266767;28;20682;-68
2023/05/18 03:36:15;;;;;;;11.18;4.10;;;;;;;5.75;100.00;102604.97;5260963;28;20025;-68
2023/05/18 03:38:47;;;;;;;12.98;4.40;;;;;;;5.65;100.00;102606.13;5266895;28;20036;-68
2023/05/18 03:41:18;;;;;;;13.18;3.90;;;;;;;5.69;100.00;102611.34;5263783;28;20040;-67
2023/05/18 03:43:50;;;;;;;12.85;3.97;;;;;;;5.70;100.00;102602.47;5261315;28;20055;-67
2023/05/18 03:46:21;;;;;;;13.00;4.38;;;;;;;5.72;100.00;102602.41;5263536;28;20063;-68
2023/05/18 03:48:53;;;;;;;10.13;4.95;;;;;;;5.65;100.00;102604.34;5261687;28;20044;-69
2023/05/18 03:51:25;;;;;;;8.75;3.97;;;;;;;5.64;100.00;102605.28;5265277;28;20035;-68
2023/05/18 03:53:57;;;;;;;10.20;4.88;;;;;;;5.72;100.00;102609.50;5274828;28;20029;-68
2023/05/18 03:56:30;;;;;;;12.02;4.28;;;;;;;5.63;100.00;102606.19;5264260;28;20032;-68
2023/05/18 03:59:02;;;;;;;9.50;4.22;;;;;;;5.58;100.00;102610.75;5263429;28;20028;-68
2023/05/18 04:01:33;;;;;;;12.00;4.35;;;;;;;5.64;100.00;102610.56;5267787;28;20044;-68
2023/05/18 04:04:06;;;;;;;10.93;4.75;;;;;;;5.66;100.00;102616.69;5264757;28;20054;-67
2023/05/18 04:06:38;;;;;;;10.18;3.95;;;;;;;5.73;100.00;102619.16;5224199;28;1131908;-68
2023/05/18 04:09:10;;;;;;;9.82;4.30;;;;;;;5.68;100.00;102621.97;5263775;28;20488;-68
2023/05/18 04:11:42;;;;;;;13.25;4.97;;;;;;;5.61;100.00;102623.88;5259556;28;20280;-68
2023/05/18 04:14:13;;;;;;;11.60;3.95;;;;;;;5.72;100.00;102620.97;5257286;28;20028;-67
2023/05/18 04:16:46;;;;;;;8.95;4.32;;;;;;;5.74;100.00;102628.88;5258647;28;20115;-68
2023/05/18 04:19:17;;;;;;;12.00;4.70;;;;;;;5.67;100.00;102626.34;5270102;28;20036;-68
2023/05/18 04:21:49;;;;;;;8.63;4.05;;;;;;;5.60;100.00;102624.81;5268780;28;20482;-68
2023/05/18 04:24:21;;;;;;;12.80;4.43;;;;;;;5.73;100.00;102633.28;5267592;28;20025;-68
2023/05/18 04:26:52;;;;;;;10.25;4.60;;;;;;;5.74;100.00;102636.81;5308198;28;20047;-68
2023/05/18 04:29:24;;;;;;;10.77;4.22;;;;;;;5.74;100.00;102635.03;5266199;28;20029;-68
2023/05/18 04:32:01;;;;;;;14.55;5.10;;;;;;;5.76;100.00;102627.91;5268061;28;20816;-68
2023/05/18 04:34:36;;;;;;;7.13;4.18;;;;;;;5.77;100.00;102623.47;5267505;28;20314;-68
2023/05/18 04:37:09;;;;;;;11.00;4.53;;;;;;;5.96;100.00;102647.69;5269522;28;20086;-68
2023/05/18 04:39:41;;;;;;;7.03;4.18;;;;;;;5.88;100.00;102647.88;5276134;28;20047;-68
2023/05/18 04:42:12;;;;;;;9.63;4.22;;;;;;;5.86;100.00;102644.41;5279138;28;20143;-68
2023/05/18 04:44:44;;;;;;;14.55;4.88;;;;;;;5.80;100.00;102642.78;5267451;28;20056;-68
2023/05/18 04:47:15;;;;;;;13.45;5.28;;;;;;;5.92;100.00;102641.56;5261144;28;20113;-68
2023/05/18 04:49:47;;;;;;;10.38;4.68;;;;;;;5.95;100.00;102644.19;5268033;28;20249;-68
2023/05/18 04:52:19;;;;;;;11.48;4.40;;;;;;;5.93;100.00;102645.13;5270827;28;20210;-68
2023/05/18 04:54:51;;;;;;;13.57;4.97;;;;;;;6.00;100.00;102641.41;5264293;28;20029;-68
2023/05/18 04:57:22;;;;;;;13.00;4.80;;;;;;;5.95;100.00;102648.59;5278411;28;20495;-68
2023/05/18 04:59:53;;;;;;;13.13;4.38;;;;;;;6.13;100.00;102660.47;5270494;28;20071;-68
2023/05/18 05:02:24;;;;;;;11.90;4.78;;;;;;;6.06;100.00;102649.19;5269499;28;20486;-68
2023/05/18 05:04:56;;;;;;;11.60;4.60;;;;;;;6.19;100.00;102652.34;5260591;28;20120;-68
2023/05/18 05:07:27;;;;;;;10.93;4.97;;;;;;;6.13;100.00;102657.81;5266847;28;20044;-68
2023/05/18 05:09:58;;;;;;;11.45;4.68;;;;;;;6.16;100.00;102652.44;5268514;28;20154;-68
2023/05/18 05:12:30;;;;;;;16.67;5.20;;;;;;;6.13;100.00;102657.81;5278512;28;20381;-68
2023/05/18 05:15:02;;;;;;;11.15;5.35;;;;;;;6.19;100.00;102649.69;5272225;28;20020;-68
2023/05/18 05:17:33;;;;;;;8.70;4.50;;;;;;;6.22;100.00;102650.47;5276347;28;20028;-68
2023/05/18 05:20:05;;;;;;;12.55;5.30;;;;;;;6.28;100.00;102650.28;5265029;28;20580;-67
2023/05/18 05:22:36;;;;;;;14.85;5.13;;;;;;;6.27;100.00;102655.63;5268462;28;20040;-68
2023/05/18 05:25:08;;;;;;;10.73;4.72;;;;;;;6.30;100.00;102647.59;5284801;28;20390;-68
2023/05/18 05:27:39;;;;;;;10.93;4.82;;;;;;;6.37;100.00;102654.47;5263269;28;20037;-68
2023/05/18 05:30:11;;;;;;;10.23;5.00;;;;;;;6.39;100.00;102657.06;5267064;28;20063;-68
2023/05/18 05:32:42;;;;;;;10.80;4.93;;;;;;;6.33;100.00;102655.47;5262304;28;20666;-68
2023/05/18 05:35:14;;;;;;;10.48;5.10;;;;;;;6.45;100.00;102657.75;5265848;28;20762;-68
2023/05/18 05:37:45;;;;;;;8.75;4.80;;;;;;;6.40;100.00;102654.34;5272200;28;20099;-68
2023/05/18 05:40:17;;;;;;;13.45;5.57;;;;;;;6.48;100.00;102657.66;5271826;28;20031;-68
2023/05/18 05:42:49;;;;;;;14.13;5.32;;;;;;;6.50;100.00;102652.31;5261760;28;20395;-68
2023/05/18 05:45:21;;;;;;;10.93;5.38;;;;;;;6.55;100.00;102660.13;5264292;28;20033;-68
2023/05/18 05:47:52;;;;;;;12.57;5.32;;;;;;;6.58;100.00;102658.25;5267481;28;20066;-68
2023/05/18 05:50:25;;;;;;;13.05;5.30;;;;;;;6.60;100.00;102647.59;5264655;28;20029;-68
2023/05/18 05:52:56;;;;;;;12.25;4.97;;;;;;;6.71;100.00;102656.06;5267813;28;20102;-68
2023/05/18 05:55:27;;;;;;;14.20;5.57;;;;;;;6.74;100.00;102655.13;5277969;28;20032;-68
2023/05/18 05:57:59;;;;;;;12.57;6.28;;;;;;;6.92;100.00;102658.97;5274644;28;20169;-68
2023/05/18 06:00:30;;;;;;;10.30;5.28;;;;;;;6.80;100.00;102670.84;5261561;28;20024;-68
2023/05/18 06:03:02;;;;;;;15.60;5.88;;;;;;;6.97;100.00;102662.34;5263381;28;20224;-68
2023/05/18 06:05:33;;;;;;;9.60;5.55;;;;;;;6.91;100.00;102663.41;5266201;28;20048;-68
2023/05/18 06:08:05;;;;;;;13.05;6.15;;;;;;;6.91;100.00;102658.13;5305299;28;20021;-66
2023/05/18 06:10:38;;;;;;;18.17;6.25;;;;;;;7.00;100.00;102656.94;5263004;28;20684;-68
2023/05/18 06:13:09;;;;;;;15.40;6.10;;;;;;;7.06;100.00;102662.06;5275816;28;20042;-68
2023/05/18 06:15:40;;;;;;;11.40;5.30;;;;;;;7.08;100.00;102662.88;5271536;28;20025;-67
2023/05/18 06:18:12;;;;;;;13.52;5.20;;;;;;;7.11;100.00;102649.50;5266194;28;20035;-68
2023/05/18 06:20:43;;;;;;;12.45;6.13;;;;;;;7.17;100.00;102659.03;5262524;28;20386;-68
2023/05/18 06:23:21;;;;;;;10.80;5.25;;;;;;;7.30;100.00;102664.81;5270854;28;20024;-68
2023/05/18 06:25:52;;;;;;;13.38;5.95;;;;;;;7.34;100.00;102662.00;5271266;28;20113;-69
2023/05/18 06:28:23;;;;;;;15.35;6.30;;;;;;;7.38;100.00;102657.44;5271969;28;20021;-68
2023/05/18 06:30:55;;;;;;;13.95;5.45;;;;;;;7.42;100.00;102664.38;5262851;28;20071;-68
2023/05/18 06:33:27;;;;;;;10.98;5.43;;;;;;;7.48;100.00;102666.88;5271078;28;20028;-68
2023/05/18 06:35:58;;;;;;;12.15;5.60;;;;;;;7.53;100.00;102670.22;5271430;28;20029;-69
2023/05/18 06:38:30;;;;;;;13.20;5.88;;;;;;;7.63;100.00;102663.69;5260418;28;20035;-68
2023/05/18 06:41:01;;;;;;;12.93;5.40;;;;;;;7.72;100.00;102666.94;5267066;28;20056;-68
2023/05/18 06:43:33;;;;;;;11.82;5.57;;;;;;;7.81;100.00;102671.91;5262766;28;20039;-70
2023/05/18 06:46:04;;;;;;;13.95;5.80;;;;;;;7.85;100.00;102677.06;5263138;28;20120;-68
2023/05/18 06:48:37;;;;;;;13.05;5.55;;;;;;;7.92;100.00;102674.16;5273192;28;20546;-68
2023/05/18 06:51:08;;;;;;;10.07;5.22;;;;;;;8.04;100.00;102671.94;5259628;28;20086;-68
2023/05/18 06:53:41;;;;;;;13.60;5.43;;;;;;;8.20;100.00;102668.72;5260528;28;20029;-69
2023/05/18 06:56:12;;;;;;;10.77;5.25;;;;;;;8.23;100.00;102665.97;5272669;28;20025;-68
2023/05/18 06:58:44;;;;;;;14.48;5.25;;;;;;;8.32;100.00;102673.59;5274164;28;20021;-68
2023/05/18 07:01:16;;;;;;;13.23;5.72;;;;;;;8.51;100.00;102676.44;5276628;28;20024;-68
2023/05/18 07:03:48;;;;;;;14.70;5.45;;;;;;;8.53;100.00;102671.06;5262301;28;20060;-68
2023/05/18 07:06:19;;;;;;;12.93;5.35;;;;;;;8.69;100.00;102682.84;5268982;28;20076;-68
2023/05/18 07:08:50;;;;;;;9.85;5.28;;;;;;;8.71;100.00;102678.34;5288023;28;20520;-69
2023/05/18 07:11:22;;;;;;;11.57;5.22;;;;;;;8.83;100.00;102682.31;5279406;28;20533;-69
2023/05/18 07:13:53;;;;;;;10.95;5.22;;;;;;;8.97;100.00;102679.94;5268155;28;20028;-69
2023/05/18 07:16:26;;;;;;;13.38;5.25;;;;;;;8.99;100.00;102685.22;5271479;28;20124;-68
2023/05/18 07:18:58;;;;;;;9.77;5.40;;;;;;;9.11;100.00;102684.75;5272059;28;20036;-68
2023/05/18 07:21:30;;;;;;;10.02;5.30;;;;;;;9.20;100.00;102686.13;5269430;28;20024;-68
2023/05/18 07:24:01;;;;;;;14.90;5.38;;;;;;;9.33;100.00;102690.03;5269918;28;20063;-68
2023/05/18 07:26:32;;;;;;;13.63;5.57;;;;;;;9.40;100.00;102691.50;5263286;28;20119;-69
2023/05/18 07:29:04;;;;;;;14.32;4.95;;;;;;;9.47;100.00;102697.44;5276228;28;20410;-68
2023/05/18 07:31:39;;;;;;;11.90;4.88;;;;;;;9.57;100.00;102689.94;5263078;28;20111;-67
2023/05/18 07:34:10;;;;;;;10.77;5.20;;;;;;;9.70;100.00;102691.13;5271920;28;20032;-68
2023/05/18 07:36:42;;;;;;;14.20;5.57;;;;;;;9.69;100.00;102691.22;5264502;28;20032;-68
2023/05/18 07:39:17;;;;;;;13.80;5.10;;;;;;;9.82;100.00;102695.09;5268165;28;20027;-68
2023/05/18 07:41:48;;;;;;;14.02;5.03;;;;;;;9.85;100.00;102697.59;5270491;28;20055;-67
2023/05/18 07:44:20;;;;;;;14.90;5.60;;;;;;;9.90;100.00;102695.59;5268038;28;20123;-67
2023/05/18 07:46:51;;;;;;;13.98;4.82;;;;;;;10.10;100.00;102697.38;5264061;28;20129;-67
2023/05/18 07:49:24;;;;;;;13.15;5.28;;;;;;;10.12;100.00;102702.66;5271284;28;20379;-68
2023/05/18 07:51:55;;;;;;;12.00;5.22;;;;;;;10.16;100.00;102705.13;5268905;28;20475;-68
2023/05/18 07:54:27;;;;;;;13.13;5.85;;;;;;;10.23;100.00;102711.03;5274447;28;20027;-67
2023/05/18 07:56:58;;;;;;;10.15;5.20;;;;;;;10.34;100.00;102706.13;5270162;28;20086;-67
2023/05/18 07:59:30;;;;;;;11.68;5.07;;;;;;;10.45;100.00;102707.41;5271251;28;20029;-68
2023/05/18 08:02:01;;;;;;;16.67;5.60;;;;;;;10.55;100.00;102708.75;5273585;28;20478;-67
2023/05/18 08:04:32;;;;;;;10.48;4.97;;;;;;;10.52;100.00;102711.53;5268102;28;20036;-71
2023/05/18 08:07:04;;;;;;;11.32;4.82;;;;;;;10.64;100.00;102710.97;5266570;28;20094;-68
2023/05/18 08:09:35;;;;;;;9.95;5.95;;;;;;;10.66;100.00;102705.56;5258511;28;20029;-67
2023/05/18 08:12:07;;;;;;;8.80;4.80;;;;;;;10.79;100.00;102704.03;5265094;28;20032;-68
2023/05/18 08:14:38;;;;;;;12.18;4.93;;;;;;;10.94;100.00;102710.47;5268190;28;20039;-69
2023/05/18 08:17:10;;;;;;;10.55;5.05;;;;;;;10.99;100.00;102709.28;5267087;28;20032;-68
2023/05/18 08:19:41;;;;;;;11.88;5.10;;;;;;;10.96;100.00;102711.25;5264292;28;20368;-68
2023/05/18 08:22:13;;;;;;;9.63;4.68;;;;;;;11.07;100.00;102706.25;5272958;28;20398;-68
2023/05/18 08:24:45;;;;;;;10.18;5.65;;;;;;;11.14;100.00;102713.03;5263392;28;20107;-69
2023/05/18 08:27:18;;;;;;;12.00;4.60;;;;;;;11.13;100.00;102694.41;5299187;28;20024;-68
2023/05/18 08:29:49;;;;;;;13.73;4.65;;;;;;;11.31;100.00;102703.31;5269756;28;20028;-68
2023/05/18 08:32:21;;;;;;;10.95;4.97;;;;;;;11.27;100.00;102699.06;5268137;28;20467;-68
2023/05/18 08:34:53;;;;;;;11.85;4.75;;;;;;;11.29;100.00;102699.84;5268985;28;20035;-68
2023/05/18 08:37:28;;;;;;;11.73;4.65;;;;;;;11.43;100.00;102694.69;5273281;28;20024;-68
2023/05/18 08:39:59;;;;;;;13.05;5.43;;;;;;;11.54;100.00;102694.13;5275164;28;20103;-68
2023/05/18 08:42:41;;;;;;;11.65;4.43;;;;;;;11.58;100.00;102685.00;5268278;28;20024;-69
2023/05/18 08:45:21;;;;;;;14.90;4.82;;;;;;;11.68;100.00;102685.41;5264819;28;20131;-69
2023/05/18 08:47:55;;;;;;;11.02;4.40;;;;;;;11.84;100.00;102677.44;5279670;28;20028;-69
2023/05/18 08:50:30;;;;;;;9.65;4.38;;;;;;;11.96;100.00;102684.84;5278196;28;20127;-68
2023/05/18 08:53:04;;;;;;;10.82;4.55;;;;;;;12.13;100.00;102683.97;5259330;28;20032;-69
2023/05/18 08:55:36;;;;;;;15.10;4.95;;;;;;;12.10;100.00;102678.75;5273256;28;20031;-69
2023/05/18 08:58:12;;;;;;;14.10;4.00;;;;;;;12.24;100.00;102686.94;5273773;28;20474;-69
2023/05/18 09:00:44;;;;;;;10.82;3.70;;;;;;;12.25;100.00;102687.78;5270745;28;20028;-68
2023/05/18 09:03:15;;;;;;;10.13;4.57;;;;;;;12.25;100.00;102680.59;5275988;28;20043;-69
2023/05/18 09:05:49;;;;;;;10.93;4.03;;;;;;;12.21;100.00;102676.38;5267784;28;20078;-68
2023/05/18 09:08:21;;;;;;;14.30;4.22;;;;;;;12.36;100.00;102667.50;5263973;28;20040;-69
2023/05/18 09:10:55;;;;;;;11.45;3.67;;;;;;;12.45;100.00;102671.50;5271904;28;20033;-68
2023/05/18 09:13:28;;;;;;;;;;;;;;;12.56;100.00;102678.97;5272853;28;20064;-69
2023/05/18 09:15:59;;;;;;;9.93;4.10;;;;;;;12.57;100.00;102674.47;5263644;28;20011;-68
2023/05/18 09:18:31;;;;;;;11.48;3.92;;;;;;;12.58;100.00;102674.38;5266790;28;20565;-68
2023/05/18 09:21:02;;;;;;;12.38;3.95;;;;;;;12.60;100.00;102669.78;5271725;28;20516;-69
2023/05/18 09:23:34;;;;;;;7.38;3.50;;;;;;;12.63;100.00;102669.59;5270222;28;20102;-69
2023/05/18 09:26:07;;;;;;;10.30;3.15;;;;;;;12.67;100.00;102671.16;5248178;28;20032;-69
2023/05/18 09:28:39;;;;;;;10.75;3.40;;;;;;;12.80;100.00;102674.03;5268353;28;20024;-69
2023/05/18 09:31:17;;;;;;;10.02;3.40;;;;;;;12.99;100.00;102665.81;5278491;28;20032;-69
2023/05/18 09:33:50;;;;;;;9.75;3.03;;;;;;;13.05;100.00;102665.44;5279817;28;20449;-69
2023/05/18 09:36:25;;;;;;;12.70;3.33;;;;;;;13.08;100.00;102664.41;5286162;28;20071;-69
2023/05/18 09:38:57;;;;;;;12.27;3.65;;;;;;;13.12;100.00;102671.31;5267043;28;20033;-69
2023/05/18 09:41:29;;;;;;;12.65;3.63;;;;;;;13.23;100.00;102662.63;5263758;28;20024;-69
2023/05/18 09:44:06;;;;;;;9.73;3.65;;;;;;;13.27;100.00;102658.81;5280177;28;20032;-69
2023/05/18 09:46:38;;;;;;;11.18;3.72;;;;;;;13.36;100.00;102660.13;5275670;28;20052;-69
2023/05/18 09:49:10;;;;;;;10.93;3.75;;;;;;;13.32;100.00;102651.41;5275412;28;20033;-69
2023/05/18 09:51:41;;;;;;;11.80;4.03;;;;;;;13.29;100.00;102651.56;5270586;28;20059;-69
2023/05/18 09:54:13;;;;;;;13.10;3.65;;;;;;;13.58;100.00;102660.59;5272086;28;20036;-69
2023/05/18 09:56:47;;;;;;;15.10;3.70;;;;;;;13.47;100.00;102655.84;5270300;28;20125;-69
2023/05/18 09:59:18;;;;;;;8.73;4.30;;;;;;;13.52;100.00;102650.25;5269945;28;20032;-69
2023/05/18 10:02:01;;;;;;;13.80;3.80;;;;;;;13.65;100.00;102645.84;5272508;28;20774;-69
2023/05/18 10:04:40;;;;;;;10.05;3.28;;;;;;;13.76;100.00;102647.88;5269661;28;20053;-69
2023/05/18 10:07:13;;;;;;;14.93;3.90;;;;;;;13.86;100.00;102646.34;5272699;28;20127;-69
2023/05/18 10:09:45;;;;;;;8.30;3.60;;;;;;;13.89;100.00;102645.31;5274199;28;20539;-69
2023/05/18 10:12:18;;;;;;;11.65;3.70;;;;;;;13.74;100.00;102639.06;5268352;28;20027;-69
2023/05/18 10:14:49;;;;;;;9.02;3.17;;;;;;;13.83;100.00;102638.50;5270068;28;20025;-69
2023/05/18 10:17:24;;;;;;;9.70;3.65;;;;;;;13.88;100.00;102639.09;5270905;28;20029;-69
2023/05/18 10:19:56;;;;;;;11.07;4.07;;;;;;;13.79;100.00;102639.66;5270488;28;20029;-69
2023/05/18 10:22:28;;;;;;;9.45;3.40;;;;;;;13.90;100.00;102634.47;5274036;28;20028;-69
2023/05/18 10:25:03;;;;;;;12.63;3.47;;;;;;;14.05;100.00;102635.31;5269990;28;20094;-69
2023/05/18 10:27:35;;;;;;;11.57;3.40;;;;;;;14.09;100.00;102636.00;5260765;28;20017;-69
2023/05/18 10:30:08;;;;;;;8.20;3.63;;;;;;;14.05;98.66;102642.53;5272971;28;20525;-69
2023/05/18 10:32:41;;;;;;;9.20;3.95;;;;;;;14.09;95.32;102638.69;5265291;28;20032;-69
2023/05/18 10:35:13;;;;;;;8.02;3.13;;;;;;;14.18;99.86;102640.78;5269008;28;20106;-69
2023/05/18 10:37:49;;;;;;;7.03;3.40;;;;;;;14.21;99.04;102637.03;5267275;28;20029;-69
2023/05/18 10:40:22;;;;;;;9.43;4.13;;;;;;;14.02;96.19;102623.94;5277739;28;20390;-69
2023/05/18 10:42:57;;;;;;;10.20;3.72;;;;;;;14.10;100.00;102630.53;5277226;28;20031;-69
2023/05/18 10:45:33;;;;;;;10.57;4.03;;;;;;;14.03;99.95;102625.66;5272311;28;20467;-69
2023/05/18 10:48:09;;;;;;;10.65;3.95;;;;;;;14.06;99.63;102618.28;5272259;28;20085;-68
2023/05/18 10:50:41;;;;;;;9.57;3.60;;;;;;;14.05;98.03;102629.09;5272133;28;20139;-69
2023/05/18 10:53:16;;;;;;;12.90;4.35;;;;;;;13.82;94.90;102619.81;5267534;28;20306;-69
2023/05/18 10:55:49;;;;;;;10.93;4.00;;;;;;;13.76;98.02;102620.19;5265410;28;20024;-68
2023/05/18 10:58:23;;;;;;;12.15;4.20;;;;;;;13.81;100.00;102620.78;5272881;28;20375;-69
2023/05/18 11:00:57;;;;;;;9.00;3.90;;;;;;;13.74;95.79;102622.97;5272090;28;20017;-68
2023/05/18 11:03:31;;;;;;;11.50;4.00;;;;;;;13.92;100.00;102619.16;5281665;28;20028;-69
2023/05/18 11:06:09;;;;;;;10.75;4.20;;;;;;;13.99;100.00;102616.06;5268043;28;20045;-69
2023/05/18 11:08:43;;;;;;;9.52;4.10;;;;;;;13.93;99.93;102610.13;5270644;28;20463;-69
2023/05/18 11:11:15;;;;;;;10.43;3.88;;;;;;;13.85;92.89;102609.75;5272769;28;20039;-68
2023/05/18 11:13:50;;;;;;;9.90;3.92;;;;;;;13.87;95.70;102615.03;5271076;28;20037;-68
2023/05/18 11:16:32;;;;;;;10.27;4.38;;;;;;;13.95;100.00;102612.72;5266147;28;20380;-68
2023/05/18 11:19:06;;;;;;;10.05;4.72;;;;;;;13.79;96.23;102606.56;5268704;28;20500;-68
2023/05/18 11:21:40;;;;;;;10.90;4.50;;;;;;;13.76;96.79;102606.78;5279632;28;20042;-69
2023/05/18 11:24:19;;;;;;;;;;;;;;;13.86;100.00;102607.91;5276509;28;20028;-69
2023/05/18 11:27:05;;;;;;;8.88;4.32;;;;;;;13.89;100.00;102602.38;5271884;28;19908;-69
2023/05/18 11:29:41;;;;;;;8.23;4.15;;;;;;;13.88;100.00;102598.84;5274792;28;20113;-69
2023/05/18 11:32:26;;;;;;;9.57;4.40;;;;;;;13.96;100.00;102610.88;5270084;28;20028;-68
2023/05/18 11:34:58;;;;;;;12.57;4.60;;;;;;;13.87;95.05;102607.81;5264694;28;20024;-69
2023/05/18 11:37:39;;;;;;;9.27;5.03;;;;;;;13.97;99.42;102599.22;5279338;28;20060;-69
2023/05/18 11:40:31;;;;;;;10.52;4.82;;;;;;;13.92;94.69;102603.03;5278423;28;20035;-68
2023/05/18 11:43:03;;;;;;;12.38;5.03;;;;;;;13.88;96.34;102601.53;5272292;28;20032;-68